9/4/20
Time         Wind Dir  Wind Gust   Humidity       Temp   Tot Rain Wind Chill Heat Index  Dew Point   Barom SL Temp Out H Temp Out L  DailyRain   HourRain   24HrRain   RainRate   Wind Run   Deg Heat   Deg Cool  MonthRain
                          km/hr          %         C         mm         C         C         C         mb         C         C         mm         mm         mm      mm/hr         km         C         C         mm
0:00              254        8.0         80       15.7      160.4       15.7       18.0       12.2     1017.8       15.7       15.7        0.0        0.0        0.0       0.00      143.7       1.50       0.20       11.0
0:02              253       14.5         81       15.7      160.4       13.4       18.1       12.4     1017.8       15.7       15.7        0.0        0.0        0.0       0.00        0.2       0.02       0.00       11.0
0:04              254       11.3         81       15.7      160.4       14.7       18.1       12.4     1018.0       15.7       15.7        0.0        0.0        0.0       0.00        0.5       0.02       0.00       11.0
0:06              254        8.0         81       15.6      160.4       15.6       18.0       12.4     1017.8       15.7       15.6        0.0        0.0        0.0       0.00        0.7       0.02       0.00       11.0
0:08              254       12.9         80       15.6      160.4       15.6       18.0       12.2     1017.9       15.7       15.6        0.0        0.0        0.0       0.00        0.9       0.02       0.00       11.0
0:10              256       12.9         80       15.6      160.4       12.7       18.0       12.2     1017.8       15.7       15.6        0.0        0.0        0.0       0.00        1.2       0.02       0.00       11.0
0:12              256        6.4         80       15.6      160.4       15.6       18.0       12.2     1017.7       15.7       15.6        0.0        0.0        0.0       0.00        1.3       0.02       0.00       11.0
0:14              256        8.0         80       15.7      160.4       15.7       18.0       12.2     1017.8       15.7       15.6        0.0        0.0        0.0       0.00        1.5       0.02       0.00       11.0
0:16              256       11.3         80       15.7      160.4       13.4       18.0       12.2     1017.8       15.7       15.6        0.0        0.0        0.0       0.00        1.7       0.05       0.00       11.0
0:18              254        8.0         79       15.7      160.4       15.7       18.0       12.1     1017.8       15.7       15.6        0.0        0.0        0.0       0.00        2.0       0.05       0.00       11.0
0:20              254       11.3         79       15.7      160.4       15.7       18.0       12.1     1017.8       15.7       15.6        0.0        0.0        0.0       0.00        2.2       0.05       0.00       11.0
0:22              254       11.3         79       15.7      160.4       14.8       18.0       12.1     1017.8       15.7       15.6        0.0        0.0        0.0       0.00        2.5       0.05       0.00       11.0
0:24              256        4.8         79       15.7      160.4       15.7       18.0       12.1     1017.7       15.7       15.6        0.0        0.0        0.0       0.00        2.7       0.05       0.00       11.0
0:26              254        6.4         79       15.8      160.4       15.8       18.1       12.1     1017.7       15.8       15.6        0.0        0.0        0.0       0.00        2.9       0.05       0.00       11.0
0:28              252       11.3         78       15.8      160.4       14.8       18.0       12.0     1017.7       15.8       15.6        0.0        0.0        0.0       0.00        3.1       0.05       0.00       11.0
0:30              252       11.3         78       15.8      160.4       15.8       18.0       12.0     1017.7       15.8       15.6        0.0        0.0        0.0       0.00        3.3       0.05       0.00       11.0
0:32              251       11.3         78       15.8      160.4       15.8       18.0       12.0     1017.8       15.8       15.6        0.0        0.0        0.0       0.00        3.6       0.07       0.00       11.0
0:34              254       14.5         78       15.8      160.4       12.3       18.0       12.0     1017.8       15.8       15.6        0.0        0.0        0.0       0.00        3.8       0.07       0.00       11.0
0:36              258        8.0         78       15.8      160.4       15.8       18.0       12.0     1017.8       15.8       15.6        0.0        0.0        0.0       0.00        4.1       0.07       0.00       11.0
0:38              257       11.3         78       15.7      160.4       13.5       17.9       11.9     1017.8       15.8       15.6        0.0        0.0        0.0       0.00        4.3       0.07       0.00       11.0
0:40              257        8.0         78       15.7      160.4       15.7       17.9       11.9     1017.7       15.8       15.6        0.0        0.0        0.0       0.00        4.5       0.07       0.00       11.0
0:42              256       11.3         78       15.7      160.4       14.8       17.9       11.9     1017.7       15.8       15.6        0.0        0.0        0.0       0.00        4.7       0.07       0.00       11.0
0:44              250        8.0         78       15.7      160.4       15.7       17.9       11.9     1017.7       15.8       15.6        0.0        0.0        0.0       0.00        4.9       0.07       0.00       11.0
0:46              252       11.3         79       15.7      160.4       15.7       18.0       12.1     1017.6       15.8       15.6        0.0        0.0        0.0       0.00        5.2       0.10       0.00       11.0
0:48              252       14.5         78       15.7      160.4       15.7       17.9       11.8     1017.7       15.8       15.6        0.0        0.0        0.0       0.00        5.4       0.10       0.00       11.0
0:50              252        8.0         78       15.7      160.4       15.7       17.9       11.9     1017.6       15.8       15.6        0.0        0.0        0.0       0.00        5.6       0.10       0.00       11.0
0:52              252        8.0         78       15.7      160.4       15.7       17.9       11.9     1017.6       15.8       15.6        0.0        0.0        0.0       0.00        5.9       0.10       0.00       11.0
0:54              252       17.7         78       15.7      160.4       12.1       17.9       11.8     1017.6       15.8       15.6        0.0        0.0        0.0       0.00        6.1       0.10       0.00       11.0
0:56              250       11.3         78       15.7      160.4       13.4       17.9       11.8     1017.6       15.8       15.6        0.0        0.0        0.0       0.00        6.3       0.10       0.00       11.0
0:58              251       14.5         78       15.7      160.4       15.7       17.9       11.8     1017.5       15.8       15.6        0.0        0.0        0.0       0.00        6.5       0.10       0.00       11.0
1:00              251        6.4         78       15.6      160.4       15.6       17.8       11.8     1017.5       15.8       15.6        0.0        0.0        0.0       0.00        6.7       0.10       0.00       11.0
1:02              252        8.0         78       15.6      160.4       14.7       17.8       11.8     1017.5       15.8       15.6        0.0        0.0        0.0       0.00        6.9       0.12       0.00       11.0
1:04              252        8.0         78       15.6      160.4       15.6       17.8       11.8     1017.4       15.8       15.6        0.0        0.0        0.0       0.00        7.2       0.12       0.00       11.0
1:06              252       16.1         78       15.6      160.4       15.6       17.8       11.8     1017.3       15.8       15.6        0.0        0.0        0.0       0.00        7.4       0.12       0.00       11.0
1:08              252        8.0         78       15.6      160.4       15.6       17.8       11.8     1017.3       15.8       15.6        0.0        0.0        0.0       0.00        7.6       0.12       0.00       11.0
1:10              252        6.4         78       15.6      160.4       15.6       17.8       11.8     1017.3       15.8       15.6        0.0        0.0        0.0       0.00        7.8       0.12       0.00       11.0
1:12              252        6.4         78       15.6      160.4       15.6       17.8       11.8     1017.4       15.8       15.6        0.0        0.0        0.0       0.00        8.0       0.12       0.00       11.0
1:14              252        8.0         78       15.6      160.4       15.6       17.8       11.7     1017.2       15.8       15.6        0.0        0.0        0.0       0.00        8.2       0.12       0.00       11.0
1:16              251        6.4         78       15.6      160.4       15.6       17.8       11.7     1017.2       15.8       15.6        0.0        0.0        0.0       0.00        8.4       0.15       0.00       11.0
1:18              252        4.8         78       15.6      160.4       15.6       17.8       11.7     1017.3       15.8       15.5        0.0        0.0        0.0       0.00        8.5       0.15       0.00       11.0
1:20              252        8.0         78       15.5      160.4       14.5       17.7       11.7     1017.2       15.8       15.5        0.0        0.0        0.0       0.00        8.7       0.15       0.00       11.0
1:22              252        3.2         78       15.5      160.4       15.5       17.7       11.7     1017.3       15.8       15.5        0.0        0.0        0.0       0.00        8.9       0.15       0.00       11.0
1:24              252       12.9         79       15.5      160.4       13.2       17.8       11.9     1017.2       15.8       15.4        0.0        0.0        0.0       0.00        9.1       0.15       0.00       11.0
1:26              252        8.0         79       15.4      160.4       15.4       17.7       11.8     1017.2       15.8       15.4        0.0        0.0        0.0       0.00        9.3       0.15       0.00       11.0
1:28              252       11.3         79       15.4      160.4       15.4       17.7       11.8     1017.2       15.8       15.4        0.0        0.0        0.0       0.00        9.6       0.15       0.00       11.0
1:30              251        8.0         79       15.4      160.4       15.4       17.7       11.8     1017.4       15.8       15.4        0.0        0.0        0.0       0.00        9.7       0.15       0.00       11.0
1:32              252        8.0         79       15.4      160.4       15.4       17.7       11.8     1017.3       15.8       15.4        0.0        0.0        0.0       0.00        9.9       0.17       0.00       11.0
1:34              252        6.4         79       15.4      160.4       15.4       17.7       11.8     1017.4       15.8       15.4        0.0        0.0        0.0       0.00       10.1       0.17       0.00       11.0
1:36              252        8.0         79       15.4      160.4       15.4       17.7       11.8     1017.4       15.8       15.4        0.0        0.0        0.0       0.00       10.3       0.17       0.00       11.0
1:38              252        6.4         79       15.4      160.4       15.4       17.7       11.8     1017.4       15.8       15.4        0.0        0.0        0.0       0.00       10.6       0.17       0.00       11.0
1:40              252        6.4         79       15.4      160.4       15.4       17.7       11.8     1017.4       15.8       15.3        0.0        0.0        0.0       0.00       10.8       0.17       0.00       11.0
1:42              251       11.3         79       15.3      160.4       15.3       17.6       11.7     1017.3       15.8       15.3        0.0        0.0        0.0       0.00       10.9       0.17       0.00       11.0
1:44              251       12.9         79       15.3      160.4       15.3       17.6       11.7     1017.2       15.8       15.3        0.0        0.0        0.0       0.00       11.1       0.17       0.00       11.0
1:46              251        6.4         79       15.3      160.4       15.3       17.6       11.7     1017.3       15.8       15.3        0.0        0.0        0.0       0.00       11.4       0.20       0.00       11.0
1:48              251       12.9         79       15.3      160.4       12.4       17.6       11.7     1017.3       15.8       15.3        0.0        0.0        0.0       0.00       11.6       0.20       0.00       11.0
1:50              251        6.4         79       15.3      160.4       15.3       17.6       11.7     1017.3       15.8       15.3        0.0        0.0        0.0       0.00       11.8       0.20       0.00       11.0
1:52              252        6.4         79       15.3      160.4       15.3       17.6       11.7     1017.3       15.8       15.3        0.0        0.0        0.0       0.00       12.0       0.20       0.00       11.0
1:54              252       12.9         79       15.3      160.4       15.3       17.6       11.7     1017.3       15.8       15.3        0.0        0.0        0.0       0.00       12.2       0.20       0.00       11.0
1:56              251        3.2         79       15.3      160.4       15.3       17.6       11.7     1017.3       15.8       15.3        0.0        0.0        0.0       0.00       12.4       0.20       0.00       11.0
1:58              251        6.4         79       15.3      160.4       15.3       17.6       11.7     1017.1       15.8       15.3        0.0        0.0        0.0       0.00       12.6       0.20       0.00       11.0
2:00              252        6.4         79       15.3      160.4       15.3       17.6       11.7     1017.1       15.8       15.3        0.0        0.0        0.0       0.00       12.7       0.20       0.00       11.0
2:02              252        8.0         79       15.3      160.4       15.3       17.6       11.7     1017.0       15.8       15.3        0.0        0.0        0.0       0.00       12.9       0.23       0.00       11.0
2:04              251        6.4         79       15.3      160.4       15.3       17.6       11.7     1017.1       15.8       15.3        0.0        0.0        0.0       0.00       13.1       0.23       0.00       11.0
2:06              251        6.4         78       15.3      160.4       15.3       17.5       11.5     1017.0       15.8       15.3        0.0        0.0        0.0       0.00       13.2       0.23       0.00       11.0
2:08              251        4.8         78       15.3      160.4       15.3       17.5       11.5     1017.0       15.8       15.3        0.0        0.0        0.0       0.00       13.4       0.23       0.00       11.0
2:10              251       11.3         78       15.3      160.4       15.3       17.5       11.5     1016.9       15.8       15.3        0.0        0.0        0.0       0.00       13.6       0.23       0.00       11.0
2:12              251        6.4         78       15.3      160.4       15.3       17.5       11.5     1016.9       15.8       15.3        0.0        0.0        0.0       0.00       13.8       0.23       0.00       11.0
2:14              251        4.8         78       15.3      160.4       15.3       17.5       11.5     1016.8       15.8       15.3        0.0        0.0        0.0       0.00       13.9       0.23       0.00       11.0
2:16              251        3.2         78       15.4      160.4       15.4       17.6       11.6     1016.7       15.8       15.3        0.0        0.0        0.0       0.00       14.0       0.26       0.00       11.0
2:18              251        4.8         78       15.4      160.4       15.4       17.6       11.6     1016.6       15.8       15.3        0.0        0.0        0.0       0.00       14.1       0.26       0.00       11.0
2:20              251        4.8         78       15.4      160.4       15.4       17.6       11.6     1016.6       15.8       15.3        0.0        0.0        0.0       0.00       14.2       0.26       0.00       11.0
2:22              251        1.6         77       15.4      160.4       15.4       17.6       11.4     1016.6       15.8       15.3        0.0        0.0        0.0       0.00       14.3       0.26       0.00       11.0
2:24              251        3.2         77       15.4      160.4       15.4       17.6       11.4     1016.5       15.8       15.3        0.0        0.0        0.0       0.00       14.4       0.26       0.00       11.0
2:26              251        3.2         77       15.4      160.4       15.4       17.6       11.4     1016.5       15.8       15.3        0.0        0.0        0.0       0.00       14.4       0.26       0.00       11.0
2:28              251        0.0         77       15.4      160.4       15.4       17.6       11.4     1016.5       15.8       15.3        0.0        0.0        0.0       0.00       14.5       0.26       0.00       11.0
2:30              251        0.0         77       15.4      160.4       15.4       17.6       11.4     1016.6       15.8       15.3        0.0        0.0        0.0       0.00       14.5       0.26       0.00       11.0
2:32              251        0.0         77       15.4      160.4       15.4       17.6       11.4     1016.6       15.8       15.3        0.0        0.0        0.0       0.00       14.5       0.28       0.00       11.0
2:34              251        0.0         77       15.4      160.4       15.4       17.6       11.4     1016.5       15.8       15.3        0.0        0.0        0.0       0.00       14.5       0.28       0.00       11.0
2:36              251        0.0         77       15.4      160.4       15.4       17.6       11.4     1016.5       15.8       15.3        0.0        0.0        0.0       0.00       14.5       0.28       0.00       11.0
2:38              251        0.0         77       15.4      160.4       15.4       17.6       11.4     1016.5       15.8       15.3        0.0        0.0        0.0       0.00       14.5       0.28       0.00       11.0
2:40              251        0.0         78       15.4      160.4       15.4       17.6       11.6     1016.5       15.8       15.3        0.0        0.0        0.0       0.00       14.5       0.28       0.00       11.0
2:41              251        0.0         78       15.4      160.4       15.4       17.6       11.6     1016.6       15.8       15.3        0.0        0.0        0.0       0.00       14.5       0.28       0.00       11.0
2:44              251        0.0         78       15.4      160.4       15.4       17.6       11.6     1016.7       15.8       15.3        0.0        0.0        0.0       0.00       14.5       0.28       0.00       11.0
2:46              251        0.0         78       15.4      160.4       15.4       17.6       11.6     1016.7       15.8       15.3        0.0        0.0        0.0       0.00       14.5       0.31       0.00       11.0
2:48              251        0.0         78       15.3      160.4       15.3       17.5       11.5     1016.6       15.8       15.3        0.0        0.0        0.0       0.00       14.5       0.31       0.00       11.0
2:50              251        0.0         78       15.3      160.4       15.3       17.5       11.5     1016.5       15.8       15.3        0.0        0.0        0.0       0.00       14.5       0.31       0.00       11.0
2:52              251        0.0         78       15.3      160.4       15.3       17.5       11.5     1016.6       15.8       15.3        0.0        0.0        0.0       0.00       14.5       0.31       0.00       11.0
2:54              251        0.0         78       15.3      160.4       15.3       17.5       11.5     1016.6       15.8       15.3        0.0        0.0        0.0       0.00       14.5       0.31       0.00       11.0
2:56              251        0.0         78       15.3      160.4       15.3       17.5       11.5     1016.6       15.8       15.2        0.0        0.0        0.0       0.00       14.5       0.31       0.00       11.0
2:58              251        0.0         78       15.2      160.4       15.2       17.4       11.4     1016.6       15.8       15.2        0.0        0.0        0.0       0.00       14.5       0.31       0.00       11.0
3:00              251        0.0         78       15.2      160.4       15.2       17.4       11.4     1016.6       15.8       15.2        0.0        0.0        0.0       0.00       14.5       0.31       0.00       11.0
3:02              251        0.0         78       15.2      160.4       15.2       17.4       11.4     1016.6       15.8       15.2        0.0        0.0        0.0       0.00       14.5       0.34       0.00       11.0
3:04              251        0.0         78       15.2      160.4       15.2       17.4       11.4     1016.6       15.8       15.2        0.0        0.0        0.0       0.00       14.5       0.34       0.00       11.0
3:06              251        0.0         78       15.2      160.4       15.2       17.4       11.4     1016.7       15.8       15.2        0.0        0.0        0.0       0.00       14.5       0.34       0.00       11.0
3:08              251        0.0         78       15.1      160.4       15.1       17.3       11.3     1016.7       15.8       15.1        0.0        0.0        0.0       0.00       14.5       0.34       0.00       11.0
3:10              251        4.8         78       15.1      160.4       15.1       17.3       11.3     1016.7       15.8       15.1        0.0        0.0        0.0       0.00       14.5       0.34       0.00       11.0
3:12              251        6.4         78       15.1      160.4       15.1       17.3       11.3     1016.6       15.8       15.1        0.0        0.0        0.0       0.00       14.7       0.34       0.00       11.0
3:13              251        3.2         78       15.1      160.4       15.1       17.3       11.3     1016.6       15.8       15.1        0.0        0.0        0.0       0.00       14.7       0.34       0.00       11.0
3:16              251        3.2         79       15.1      160.4       15.1       17.3       11.4     1016.5       15.8       15.1        0.0        0.0        0.0       0.00       14.8       0.37       0.00       11.0
3:18              251        4.8         79       15.1      160.4       15.1       17.3       11.4     1016.6       15.8       15.1        0.0        0.0        0.0       0.00       14.9       0.37       0.00       11.0
3:20              251        6.4         79       15.1      160.4       15.1       17.3       11.4     1016.5       15.8       15.1        0.0        0.0        0.0       0.00       15.0       0.37       0.00       11.0
3:22              251        1.6         78       15.1      160.4       15.1       17.3       11.3     1016.5       15.8       15.1        0.0        0.0        0.0       0.00       15.1       0.37       0.00       11.0
3:24              251        3.2         78       15.1      160.4       15.1       17.3       11.3     1016.5       15.8       15.1        0.0        0.0        0.0       0.00       15.1       0.37       0.00       11.0
3:26              251        3.2         78       15.1      160.4       15.1       17.3       11.3     1016.4       15.8       15.1        0.0        0.0        0.0       0.00       15.2       0.37       0.00       11.0
3:28              251        4.8         78       15.1      160.4       15.1       17.3       11.3     1016.4       15.8       15.1        0.0        0.0        0.0       0.00       15.3       0.37       0.00       11.0
3:30              251        1.6         78       15.1      160.4       15.1       17.3       11.3     1016.3       15.8       15.1        0.0        0.0        0.0       0.00       15.4       0.37       0.00       11.0
3:32              251        3.2         78       15.1      160.4       15.1       17.3       11.3     1016.3       15.8       15.1        0.0        0.0        0.0       0.00       15.5       0.40       0.00       11.0
3:34              251        3.2         78       15.1      160.4       15.1       17.3       11.3     1016.3       15.8       15.1        0.0        0.0        0.0       0.00       15.6       0.40       0.00       11.0
3:36              251        4.8         78       15.2      160.4       15.2       17.4       11.4     1016.3       15.8       15.1        0.0        0.0        0.0       0.00       15.6       0.40       0.00       11.0
3:38              251        3.2         78       15.2      160.4       15.2       17.4       11.4     1016.3       15.8       15.1        0.0        0.0        0.0       0.00       15.7       0.40       0.00       11.0
3:40              251        1.6         78       15.2      160.4       15.2       17.4       11.4     1016.3       15.8       15.1        0.0        0.0        0.0       0.00       15.8       0.40       0.00       11.0
3:42              251        1.6         78       15.2      160.4       15.2       17.4       11.4     1016.3       15.8       15.1        0.0        0.0        0.0       0.00       15.8       0.40       0.00       11.0
3:44              251        1.6         78       15.2      160.4       15.2       17.4       11.4     1016.2       15.8       15.1        0.0        0.0        0.0       0.00       15.9       0.40       0.00       11.0
3:46              251        1.6         78       15.2      160.4       15.2       17.4       11.4     1016.3       15.8       15.1        0.0        0.0        0.0       0.00       15.9       0.43       0.00       11.0
3:48              251        1.6         77       15.2      160.4       15.2       17.4       11.2     1016.2       15.8       15.1        0.0        0.0        0.0       0.00       15.9       0.43       0.00       11.0
3:50              251        1.6         77       15.2      160.4       15.2       17.4       11.2     1016.2       15.8       15.1        0.0        0.0        0.0       0.00       16.0       0.43       0.00       11.0
3:52              251        0.0         77       15.3      160.4       15.3       17.4       11.3     1016.3       15.8       15.1        0.0        0.0        0.0       0.00       16.0       0.43       0.00       11.0
3:54              251        0.0         77       15.3      160.4       15.3       17.4       11.3     1016.3       15.8       15.1        0.0        0.0        0.0       0.00       16.0       0.43       0.00       11.0
3:56              251        0.0         77       15.3      160.4       15.3       17.4       11.3     1016.3       15.8       15.1        0.0        0.0        0.0       0.00       16.0       0.43       0.00       11.0
3:58              251        0.0         77       15.3      160.4       15.3       17.4       11.3     1016.4       15.8       15.1        0.0        0.0        0.0       0.00       16.0       0.43       0.00       11.0
4:00              251        0.0         77       15.3      160.4       15.3       17.4       11.3     1016.3       15.8       15.1        0.0        0.0        0.0       0.00       16.0       0.43       0.00       11.0
4:02              251        0.0         77       15.3      160.4       15.3       17.4       11.3     1016.3       15.8       15.1        0.0        0.0        0.0       0.00       16.0       0.46       0.00       11.0
4:04              251        0.0         77       15.3      160.4       15.3       17.4       11.3     1016.3       15.8       15.1        0.0        0.0        0.0       0.00       16.0       0.46       0.00       11.0
4:06              251        0.0         77       15.3      160.4       15.3       17.4       11.3     1016.3       15.8       15.1        0.0        0.0        0.0       0.00       16.0       0.46       0.00       11.0
4:08              251        0.0         77       15.3      160.4       15.3       17.4       11.3     1016.3       15.8       15.1        0.0        0.0        0.0       0.00       16.0       0.46       0.00       11.0
4:10              251        0.0         77       15.3      160.4       15.3       17.4       11.3     1016.3       15.8       15.1        0.0        0.0        0.0       0.00       16.0       0.46       0.00       11.0
4:12              251        0.0         77       15.2      160.4       15.2       17.4       11.2     1016.2       15.8       15.1        0.0        0.0        0.0       0.00       16.0       0.46       0.00       11.0
4:14              251        0.0         77       15.2      160.4       15.2       17.4       11.2     1016.3       15.8       15.1        0.0        0.0        0.0       0.00       16.0       0.46       0.00       11.0
4:16              251        0.0         77       15.2      160.4       15.2       17.4       11.2     1016.3       15.8       15.1        0.0        0.0        0.0       0.00       16.0       0.48       0.00       11.0
4:18              251        0.0         78       15.2      160.4       15.2       17.4       11.4     1016.3       15.8       15.1        0.0        0.0        0.0       0.00       16.0       0.48       0.00       11.0
4:20              251        0.0         78       15.2      160.4       15.2       17.4       11.4     1016.2       15.8       15.1        0.0        0.0        0.0       0.00       16.0       0.48       0.00       11.0
4:22              251        0.0         78       15.2      160.4       15.2       17.4       11.4     1016.3       15.8       15.1        0.0        0.0        0.0       0.00       16.0       0.48       0.00       11.0
4:24              251        0.0         78       15.2      160.4       15.2       17.4       11.4     1016.3       15.8       15.1        0.0        0.0        0.0       0.00       16.0       0.48       0.00       11.0
4:26              251        0.0         78       15.2      160.4       15.2       17.4       11.4     1016.3       15.8       15.1        0.0        0.0        0.0       0.00       16.0       0.48       0.00       11.0
4:28              251        0.0         78       15.2      160.4       15.2       17.4       11.4     1016.2       15.8       15.1        0.0        0.0        0.0       0.00       16.0       0.48       0.00       11.0
4:30              251        0.0         78       15.2      160.4       15.2       17.4       11.4     1016.2       15.8       15.1        0.0        0.0        0.0       0.00       16.0       0.48       0.00       11.0
4:32              251        0.0         78       15.1      160.4       15.1       17.3       11.3     1016.2       15.8       15.1        0.0        0.0        0.0       0.00       16.0       0.51       0.00       11.0
4:34              251        0.0         78       15.1      160.4       15.1       17.3       11.3     1016.2       15.8       15.1        0.0        0.0        0.0       0.00       16.0       0.51       0.00       11.0
4:36              251        0.0         78       15.1      160.4       15.1       17.3       11.3     1016.2       15.8       15.1        0.0        0.0        0.0       0.00       16.0       0.51       0.00       11.0
4:38              251        0.0         79       15.1      160.4       15.1       17.4       11.5     1016.2       15.8       15.1        0.0        0.0        0.0       0.00       16.0       0.51       0.00       11.0
4:40              251        0.0         79       15.1      160.4       15.1       17.4       11.5     1016.2       15.8       15.1        0.0        0.0        0.0       0.00       16.0       0.51       0.00       11.0
4:42              251        0.0         79       15.1      160.4       15.1       17.3       11.4     1016.2       15.8       15.1        0.0        0.0        0.0       0.00       16.0       0.51       0.00       11.0
4:44              251        0.0         79       15.1      160.4       15.1       17.3       11.4     1016.2       15.8       15.1        0.0        0.0        0.0       0.00       16.0       0.51       0.00       11.0
4:46              251        0.0         79       15.1      160.4       15.1       17.3       11.4     1016.2       15.8       15.1        0.0        0.0        0.0       0.00       16.0       0.55       0.00       11.0
4:48              251        0.0         79       15.1      160.4       15.1       17.3       11.4     1016.2       15.8       15.1        0.0        0.0        0.0       0.00       16.0       0.55       0.00       11.0
4:50              251        0.0         79       15.1      160.4       15.1       17.3       11.4     1016.1       15.8       15.0        0.0        0.0        0.0       0.00       16.0       0.55       0.00       11.0
4:52              251        0.0         79       15.1      160.4       15.1       17.3       11.4     1016.2       15.8       15.0        0.0        0.0        0.0       0.00       16.0       0.55       0.00       11.0
4:54              251        0.0         79       15.1      160.4       15.1       17.3       11.4     1016.2       15.8       15.0        0.0        0.0        0.0       0.00       16.0       0.55       0.00       11.0
4:56              251        0.0         79       15.0      160.4       15.0       17.3       11.4     1016.2       15.8       15.0        0.0        0.0        0.0       0.00       16.0       0.55       0.00       11.0
4:58              251        0.0         79       15.0      160.4       15.0       17.3       11.4     1016.2       15.8       15.0        0.0        0.0        0.0       0.00       16.0       0.55       0.00       11.0
5:00              251        0.0         79       15.0      160.4       15.0       17.3       11.4     1016.2       15.8       15.0        0.0        0.0        0.0       0.00       16.0       0.55       0.00       11.0
5:02              251        0.0         79       15.0      160.4       15.0       17.3       11.4     1016.2       15.8       15.0        0.0        0.0        0.0       0.00       16.0       0.58       0.00       11.0
5:04              251        0.0         80       15.0      160.4       15.0       17.3       11.6     1016.2       15.8       15.0        0.0        0.0        0.0       0.00       16.0       0.58       0.00       11.0
5:06              251        0.0         80       15.0      160.4       15.0       17.3       11.6     1016.2       15.8       14.9        0.0        0.0        0.0       0.00       16.0       0.58       0.00       11.0
5:08              251        0.0         80       15.0      160.4       15.0       17.3       11.6     1016.2       15.8       14.9        0.0        0.0        0.0       0.00       16.0       0.58       0.00       11.0
5:10              251        0.0         80       15.0      160.4       15.0       17.3       11.6     1016.1       15.8       14.9        0.0        0.0        0.0       0.00       16.0       0.58       0.00       11.0
5:12              251        0.0         80       15.0      160.4       15.0       17.3       11.6     1016.2       15.8       14.9        0.0        0.0        0.0       0.00       16.0       0.58       0.00       11.0
5:14              251        0.0         80       15.0      160.4       15.0       17.3       11.6     1016.2       15.8       14.9        0.0        0.0        0.0       0.00       16.0       0.58       0.00       11.0
5:16              251        0.0         80       15.0      160.4       15.0       17.3       11.6     1016.1       15.8       14.9        0.0        0.0        0.0       0.00       16.0       0.61       0.00       11.0
5:18              251        0.0         80       15.0      160.4       15.0       17.3       11.6     1016.2       15.8       14.9        0.0        0.0        0.0       0.00       16.0       0.61       0.00       11.0
5:20              251        0.0         80       15.0      160.4       15.0       17.3       11.6     1016.2       15.8       14.9        0.0        0.0        0.0       0.00       16.0       0.61       0.00       11.0
5:22              251        0.0         80       15.0      160.4       15.0       17.3       11.6     1016.2       15.8       14.9        0.0        0.0        0.0       0.00       16.0       0.61       0.00       11.0
5:24              251        0.0         80       14.9      160.4       14.9       17.3       11.5     1016.2       15.8       14.9        0.0        0.0        0.0       0.00       16.0       0.61       0.00       11.0
5:26              251        0.0         80       14.9      160.4       14.9       17.3       11.5     1016.2       15.8       14.9        0.0        0.0        0.0       0.00       16.0       0.61       0.00       11.0
5:28              251        0.0         80       14.9      160.4       14.9       17.3       11.5     1016.2       15.8       14.9        0.0        0.0        0.0       0.00       16.0       0.61       0.00       11.0
5:30              251        0.0         80       14.9      160.4       14.9       17.3       11.5     1016.3       15.8       14.9        0.0        0.0        0.0       0.00       16.0       0.61       0.00       11.0
5:32              251        0.0         80       14.9      160.4       14.9       17.3       11.5     1016.2       15.8       14.9        0.0        0.0        0.0       0.00       16.0       0.64       0.00       11.0
5:34              251        0.0         80       14.9      160.4       14.9       17.3       11.5     1016.3       15.8       14.9        0.0        0.0        0.0       0.00       16.0       0.64       0.00       11.0
5:36              251        0.0         80       14.9      160.4       14.9       17.2       11.5     1016.3       15.8       14.9        0.0        0.0        0.0       0.00       16.0       0.64       0.00       11.0
5:38              251        0.0         80       14.9      160.4       14.9       17.3       11.5     1016.3       15.8       14.9        0.0        0.0        0.0       0.00       16.0       0.64       0.00       11.0
5:39              251        0.0         80       14.9      160.4       14.9       17.2       11.5     1016.3       15.8       14.9        0.0        0.0        0.0       0.00       16.0       0.64       0.00       11.0
5:42              251        3.2         80       14.9      160.4       14.9       17.2       11.5     1016.4       15.8       14.9        0.0        0.0        0.0       0.00       16.0       0.64       0.00       11.0
5:44              251        3.2         80       14.9      160.4       14.9       17.2       11.5     1016.4       15.8       14.9        0.0        0.0        0.0       0.00       16.1       0.64       0.00       11.0
5:46              251        1.6         80       14.9      160.4       14.9       17.2       11.5     1016.4       15.8       14.9        0.0        0.0        0.0       0.00       16.1       0.67       0.00       11.0
5:48              251        4.8         79       14.9      160.4       14.9       17.2       11.3     1016.4       15.8       14.9        0.0        0.0        0.0       0.00       16.2       0.67       0.00       11.0
5:50              251        3.2         79       14.9      160.4       14.9       17.2       11.3     1016.4       15.8       14.9        0.0        0.0        0.0       0.00       16.2       0.67       0.00       11.0
5:52              251        1.6         79       14.9      160.4       14.9       17.2       11.3     1016.4       15.8       14.9        0.0        0.0        0.0       0.00       16.3       0.67       0.00       11.0
5:54              251        3.2         79       14.8      160.4       14.8       17.1       11.2     1016.4       15.8       14.8        0.0        0.0        0.0       0.00       16.3       0.67       0.00       11.0
5:56              251        1.6         79       14.9      160.4       14.9       17.2       11.3     1016.5       15.8       14.8        0.0        0.0        0.0       0.00       16.3       0.67       0.00       11.0
5:58              251        1.6         80       14.9      160.4       14.9       17.2       11.5     1016.5       15.8       14.8        0.0        0.0        0.0       0.00       16.4       0.67       0.00       11.0
6:00              251        1.6         80       14.9      160.4       14.9       17.2       11.5     1016.5       15.8       14.8        0.0        0.0        0.0       0.00       16.4       0.67       0.00       11.0
6:02              251        1.6         80       14.9      160.4       14.9       17.2       11.5     1016.6       15.8       14.8        0.0        0.0        0.0       0.00       16.5       0.70       0.00       11.0